sensor_id;sensor_type;location;lat;lon;timestamp;pressure;altitude;pressure_sealevel;temperature
19666;BMP180;9980;51.020;7.772;2023-01-28T00:00:57;98407.00;;;6.10
19666;BMP180;9980;51.020;7.772;2023-01-28T00:03:24;98393.00;;;6.10
19666;BMP180;9980;51.020;7.772;2023-01-28T00:05:51;98405.00;;;6.10
19666;BMP180;9980;51.020;7.772;2023-01-28T00:08:17;98403.00;;;6.10
19666;BMP180;9980;51.020;7.772;2023-01-28T00:10:43;98399.00;;;6.10
19666;BMP180;9980;51.020;7.772;2023-01-28T00:13:12;98404.00;;;6.10
19666;BMP180;9980;51.020;7.772;2023-01-28T00:15:41;98393.00;;;6.10
19666;BMP180;9980;51.020;7.772;2023-01-28T00:18:07;98408.00;;;6.10
19666;BMP180;9980;51.020;7.772;2023-01-28T00:20:34;98410.00;;;6.10
19666;BMP180;9980;51.020;7.772;2023-01-28T00:23:00;98408.00;;;6.20
19666;BMP180;9980;51.020;7.772;2023-01-28T00:25:26;98409.00;;;6.20
19666;BMP180;9980;51.020;7.772;2023-01-28T00:27:53;98398.00;;;6.20
19666;BMP180;9980;51.020;7.772;2023-01-28T00:30:19;98394.00;;;6.20
19666;BMP180;9980;51.020;7.772;2023-01-28T00:32:45;98408.00;;;6.20
19666;BMP180;9980;51.020;7.772;2023-01-28T00:35:11;98396.00;;;6.20
19666;BMP180;9980;51.020;7.772;2023-01-28T00:37:40;98402.00;;;6.20
19666;BMP180;9980;51.020;7.772;2023-01-28T00:40:07;98390.00;;;6.20
19666;BMP180;9980;51.020;7.772;2023-01-28T00:42:34;98392.00;;;6.20
19666;BMP180;9980;51.020;7.772;2023-01-28T00:45:01;98397.00;;;6.20
19666;BMP180;9980;51.020;7.772;2023-01-28T00:47:28;98398.00;;;6.20
19666;BMP180;9980;51.020;7.772;2023-01-28T00:49:54;98397.00;;;6.20
19666;BMP180;9980;51.020;7.772;2023-01-28T00:52:21;98400.00;;;6.20
19666;BMP180;9980;51.020;7.772;2023-01-28T00:54:47;98409.00;;;6.10
19666;BMP180;9980;51.020;7.772;2023-01-28T00:57:13;98398.00;;;6.10
19666;BMP180;9980;51.020;7.772;2023-01-28T00:59:39;98391.00;;;6.10
19666;BMP180;9980;51.020;7.772;2023-01-28T01:02:06;98400.00;;;6.10
19666;BMP180;9980;51.020;7.772;2023-01-28T01:04:41;98386.00;;;6.10
19666;BMP180;9980;51.020;7.772;2023-01-28T01:07:22;98406.00;;;6.10
19666;BMP180;9980;51.020;7.772;2023-01-28T01:10:03;98401.00;;;6.10
19666;BMP180;9980;51.020;7.772;2023-01-28T01:12:30;98406.00;;;6.10
19666;BMP180;9980;51.020;7.772;2023-01-28T01:14:56;98412.00;;;6.10
19666;BMP180;9980;51.020;7.772;2023-01-28T01:17:23;98401.00;;;6.10
19666;BMP180;9980;51.020;7.772;2023-01-28T01:19:49;98390.00;;;6.10
19666;BMP180;9980;51.020;7.772;2023-01-28T01:22:15;98387.00;;;6.10
19666;BMP180;9980;51.020;7.772;2023-01-28T01:24:41;98395.00;;;6.10
19666;BMP180;9980;51.020;7.772;2023-01-28T01:27:07;98398.00;;;6.10
19666;BMP180;9980;51.020;7.772;2023-01-28T01:29:34;98393.00;;;6.10
19666;BMP180;9980;51.020;7.772;2023-01-28T01:32:00;98391.00;;;6.10
19666;BMP180;9980;51.020;7.772;2023-01-28T01:34:26;98393.00;;;6.10
19666;BMP180;9980;51.020;7.772;2023-01-28T01:36:52;98409.00;;;6.10
19666;BMP180;9980;51.020;7.772;2023-01-28T01:39:18;98398.00;;;6.10
19666;BMP180;9980;51.020;7.772;2023-01-28T01:41:45;98414.00;;;6.10
19666;BMP180;9980;51.020;7.772;2023-01-28T01:45:11;98398.00;;;6.10
19666;BMP180;9980;51.020;7.772;2023-01-28T01:50:35;98396.00;;;6.10
19666;BMP180;9980;51.020;7.772;2023-01-28T01:53:11;98405.00;;;6.00
19666;BMP180;9980;51.020;7.772;2023-01-28T01:55:46;98413.00;;;6.10
19666;BMP180;9980;51.020;7.772;2023-01-28T01:58:18;98413.00;;;6.00
19666;BMP180;9980;51.020;7.772;2023-01-28T02:00:46;98408.00;;;6.10
19666;BMP180;9980;51.020;7.772;2023-01-28T02:03:15;98416.00;;;6.00
19666;BMP180;9980;51.020;7.772;2023-01-28T02:05:42;98403.00;;;6.00
19666;BMP180;9980;51.020;7.772;2023-01-28T02:08:09;98408.00;;;6.00
19666;BMP180;9980;51.020;7.772;2023-01-28T02:11:01;98402.00;;;6.00
19666;BMP180;9980;51.020;7.772;2023-01-28T02:13:41;98414.00;;;6.00
19666;BMP180;9980;51.020;7.772;2023-01-28T02:16:10;98415.00;;;5.90
19666;BMP180;9980;51.020;7.772;2023-01-28T02:18:37;98406.00;;;5.90
19666;BMP180;9980;51.020;7.772;2023-01-28T02:24:23;98435.00;;;5.90
19666;BMP180;9980;51.020;7.772;2023-01-28T02:27:31;98427.00;;;5.90
19666;BMP180;9980;51.020;7.772;2023-01-28T02:30:28;98432.00;;;5.90
19666;BMP180;9980;51.020;7.772;2023-01-28T02:33:10;98424.00;;;5.90
19666;BMP180;9980;51.020;7.772;2023-01-28T02:35:54;98425.00;;;5.80
19666;BMP180;9980;51.020;7.772;2023-01-28T02:38:32;98440.00;;;5.80
19666;BMP180;9980;51.020;7.772;2023-01-28T02:41:08;98424.00;;;5.80
19666;BMP180;9980;51.020;7.772;2023-01-28T02:43:38;98428.00;;;5.80
19666;BMP180;9980;51.020;7.772;2023-01-28T02:49:27;98419.00;;;5.80
19666;BMP180;9980;51.020;7.772;2023-01-28T02:55:11;98421.00;;;5.80
19666;BMP180;9980;51.020;7.772;2023-01-28T03:00:37;98425.00;;;5.80
19666;BMP180;9980;51.020;7.772;2023-01-28T03:05:52;98426.00;;;5.80
19666;BMP180;9980;51.020;7.772;2023-01-28T03:09:02;98438.00;;;5.80
19666;BMP180;9980;51.020;7.772;2023-01-28T03:12:08;98433.00;;;5.70
19666;BMP180;9980;51.020;7.772;2023-01-28T03:15:36;98440.00;;;5.70
19666;BMP180;9980;51.020;7.772;2023-01-28T03:18:34;98445.00;;;5.70
19666;BMP180;9980;51.020;7.772;2023-01-28T03:21:35;98440.00;;;5.70
19666;BMP180;9980;51.020;7.772;2023-01-28T03:24:29;98456.00;;;5.70
19666;BMP180;9980;51.020;7.772;2023-01-28T03:27:33;98458.00;;;5.70
19666;BMP180;9980;51.020;7.772;2023-01-28T03:30:42;98456.00;;;5.70
19666;BMP180;9980;51.020;7.772;2023-01-28T03:33:41;98452.00;;;5.60
19666;BMP180;9980;51.020;7.772;2023-01-28T03:36:29;98463.00;;;5.70
19666;BMP180;9980;51.020;7.772;2023-01-28T03:39:31;98453.00;;;5.60
19666;BMP180;9980;51.020;7.772;2023-01-28T03:42:06;98473.00;;;5.60
19666;BMP180;9980;51.020;7.772;2023-01-28T03:44:36;98455.00;;;5.60
19666;BMP180;9980;51.020;7.772;2023-01-28T03:47:24;98469.00;;;5.60
19666;BMP180;9980;51.020;7.772;2023-01-28T03:49:54;98461.00;;;5.60
19666;BMP180;9980;51.020;7.772;2023-01-28T03:52:28;98468.00;;;5.60
19666;BMP180;9980;51.020;7.772;2023-01-28T03:55:07;98464.00;;;5.60
19666;BMP180;9980;51.020;7.772;2023-01-28T03:57:40;98461.00;;;5.60
19666;BMP180;9980;51.020;7.772;2023-01-28T04:00:07;98447.00;;;5.60
19666;BMP180;9980;51.020;7.772;2023-01-28T04:02:39;98461.00;;;5.60
19666;BMP180;9980;51.020;7.772;2023-01-28T04:05:09;98469.00;;;5.60
19666;BMP180;9980;51.020;7.772;2023-01-28T04:07:44;98472.00;;;5.60
19666;BMP180;9980;51.020;7.772;2023-01-28T04:10:32;98477.00;;;5.60
19666;BMP180;9980;51.020;7.772;2023-01-28T04:13:11;98461.00;;;5.60
19666;BMP180;9980;51.020;7.772;2023-01-28T04:15:40;98476.00;;;5.60
19666;BMP180;9980;51.020;7.772;2023-01-28T04:18:08;98465.00;;;5.60
19666;BMP180;9980;51.020;7.772;2023-01-28T04:20:36;98461.00;;;5.60
19666;BMP180;9980;51.020;7.772;2023-01-28T04:23:04;98457.00;;;5.60
19666;BMP180;9980;51.020;7.772;2023-01-28T04:25:33;98481.00;;;5.60
19666;BMP180;9980;51.020;7.772;2023-01-28T04:28:00;98478.00;;;5.60
19666;BMP180;9980;51.020;7.772;2023-01-28T04:30:29;98468.00;;;5.60
19666;BMP180;9980;51.020;7.772;2023-01-28T04:33:28;98475.00;;;5.50
19666;BMP180;9980;51.020;7.772;2023-01-28T04:36:00;98478.00;;;5.50
19666;BMP180;9980;51.020;7.772;2023-01-28T04:38:55;98469.00;;;5.50
19666;BMP180;9980;51.020;7.772;2023-01-28T04:41:36;98491.00;;;5.50
19666;BMP180;9980;51.020;7.772;2023-01-28T04:44:23;98486.00;;;5.50
19666;BMP180;9980;51.020;7.772;2023-01-28T04:47:06;98494.00;;;5.40
19666;BMP180;9980;51.020;7.772;2023-01-28T04:49:52;98499.00;;;5.40
19666;BMP180;9980;51.020;7.772;2023-01-28T04:52:26;98500.00;;;5.40
19666;BMP180;9980;51.020;7.772;2023-01-28T04:55:04;98500.00;;;5.40
19666;BMP180;9980;51.020;7.772;2023-01-28T04:57:30;98505.00;;;5.40
19666;BMP180;9980;51.020;7.772;2023-01-28T04:59:57;98493.00;;;5.40
19666;BMP180;9980;51.020;7.772;2023-01-28T05:02:25;98487.00;;;5.40
19666;BMP180;9980;51.020;7.772;2023-01-28T05:04:52;98491.00;;;5.30
19666;BMP180;9980;51.020;7.772;2023-01-28T05:07:35;98497.00;;;5.30
19666;BMP180;9980;51.020;7.772;2023-01-28T05:10:03;98482.00;;;5.30
19666;BMP180;9980;51.020;7.772;2023-01-28T05:12:30;98500.00;;;5.40
19666;BMP180;9980;51.020;7.772;2023-01-28T05:15:06;98489.00;;;5.30
19666;BMP180;9980;51.020;7.772;2023-01-28T05:17:32;98493.00;;;5.30
19666;BMP180;9980;51.020;7.772;2023-01-28T05:19:58;98489.00;;;5.40
19666;BMP180;9980;51.020;7.772;2023-01-28T05:22:27;98487.00;;;5.30
19666;BMP180;9980;51.020;7.772;2023-01-28T05:25:23;98485.00;;;5.30
19666;BMP180;9980;51.020;7.772;2023-01-28T05:27:51;98484.00;;;5.30
19666;BMP180;9980;51.020;7.772;2023-01-28T05:30:18;98487.00;;;5.30
19666;BMP180;9980;51.020;7.772;2023-01-28T05:32:45;98498.00;;;5.30
19666;BMP180;9980;51.020;7.772;2023-01-28T05:35:14;98479.00;;;5.30
19666;BMP180;9980;51.020;7.772;2023-01-28T05:37:41;98491.00;;;5.30
19666;BMP180;9980;51.020;7.772;2023-01-28T05:40:08;98482.00;;;5.30
19666;BMP180;9980;51.020;7.772;2023-01-28T05:42:35;98488.00;;;5.30
19666;BMP180;9980;51.020;7.772;2023-01-28T05:45:19;98494.00;;;5.30
19666;BMP180;9980;51.020;7.772;2023-01-28T05:48:06;98498.00;;;5.30
19666;BMP180;9980;51.020;7.772;2023-01-28T05:50:51;98484.00;;;5.30
19666;BMP180;9980;51.020;7.772;2023-01-28T05:53:30;98469.00;;;5.30
19666;BMP180;9980;51.020;7.772;2023-01-28T05:55:57;98505.00;;;5.30
19666;BMP180;9980;51.020;7.772;2023-01-28T05:58:23;98512.00;;;5.30
19666;BMP180;9980;51.020;7.772;2023-01-28T06:00:53;98507.00;;;5.30
19666;BMP180;9980;51.020;7.772;2023-01-28T06:03:25;98503.00;;;5.20
19666;BMP180;9980;51.020;7.772;2023-01-28T06:05:51;98507.00;;;5.20
19666;BMP180;9980;51.020;7.772;2023-01-28T06:08:18;98518.00;;;5.20
19666;BMP180;9980;51.020;7.772;2023-01-28T06:10:45;98489.00;;;5.20
19666;BMP180;9980;51.020;7.772;2023-01-28T06:13:14;98501.00;;;5.20
19666;BMP180;9980;51.020;7.772;2023-01-28T06:15:59;98497.00;;;5.20
19666;BMP180;9980;51.020;7.772;2023-01-28T06:18:37;98516.00;;;5.20
19666;BMP180;9980;51.020;7.772;2023-01-28T06:21:03;98499.00;;;5.20
19666;BMP180;9980;51.020;7.772;2023-01-28T06:23:29;98512.00;;;5.20
19666;BMP180;9980;51.020;7.772;2023-01-28T06:25:56;98513.00;;;5.30
19666;BMP180;9980;51.020;7.772;2023-01-28T06:28:25;98510.00;;;5.30
19666;BMP180;9980;51.020;7.772;2023-01-28T06:30:52;98509.00;;;5.20
19666;BMP180;9980;51.020;7.772;2023-01-28T06:33:20;98508.00;;;5.20
19666;BMP180;9980;51.020;7.772;2023-01-28T06:35:47;98518.00;;;5.20
19666;BMP180;9980;51.020;7.772;2023-01-28T06:38:13;98526.00;;;5.20
19666;BMP180;9980;51.020;7.772;2023-01-28T06:40:39;98527.00;;;5.20
19666;BMP180;9980;51.020;7.772;2023-01-28T06:43:06;98526.00;;;5.20
19666;BMP180;9980;51.020;7.772;2023-01-28T06:45:32;98539.00;;;5.20
19666;BMP180;9980;51.020;7.772;2023-01-28T06:47:58;98517.00;;;5.20
19666;BMP180;9980;51.020;7.772;2023-01-28T06:50:25;98525.00;;;5.20
19666;BMP180;9980;51.020;7.772;2023-01-28T06:52:51;98536.00;;;5.20
19666;BMP180;9980;51.020;7.772;2023-01-28T06:55:18;98544.00;;;5.20
19666;BMP180;9980;51.020;7.772;2023-01-28T06:57:44;98549.00;;;5.20
19666;BMP180;9980;51.020;7.772;2023-01-28T07:00:12;98555.00;;;5.10
19666;BMP180;9980;51.020;7.772;2023-01-28T07:02:41;98553.00;;;5.20
19666;BMP180;9980;51.020;7.772;2023-01-28T07:05:07;98548.00;;;5.20
19666;BMP180;9980;51.020;7.772;2023-01-28T07:07:34;98540.00;;;5.20
19666;BMP180;9980;51.020;7.772;2023-01-28T07:10:00;98540.00;;;5.20
19666;BMP180;9980;51.020;7.772;2023-01-28T07:12:26;98540.00;;;5.20
19666;BMP180;9980;51.020;7.772;2023-01-28T07:14:52;98543.00;;;5.10
19666;BMP180;9980;51.020;7.772;2023-01-28T07:17:19;98530.00;;;5.10
19666;BMP180;9980;51.020;7.772;2023-01-28T07:19:48;98530.00;;;5.10
19666;BMP180;9980;51.020;7.772;2023-01-28T07:22:15;98554.00;;;5.10
19666;BMP180;9980;51.020;7.772;2023-01-28T07:24:42;98565.00;;;5.10
19666;BMP180;9980;51.020;7.772;2023-01-28T07:27:08;98559.00;;;5.00
19666;BMP180;9980;51.020;7.772;2023-01-28T07:29:41;98523.00;;;5.00
19666;BMP180;9980;51.020;7.772;2023-01-28T07:32:10;98541.00;;;5.00
19666;BMP180;9980;51.020;7.772;2023-01-28T07:34:36;98539.00;;;4.90
19666;BMP180;9980;51.020;7.772;2023-01-28T07:37:05;98540.00;;;4.90
19666;BMP180;9980;51.020;7.772;2023-01-28T07:39:34;98555.00;;;4.90
19666;BMP180;9980;51.020;7.772;2023-01-28T07:42:01;98552.00;;;4.90
19666;BMP180;9980;51.020;7.772;2023-01-28T07:44:37;98498.00;;;4.90
19666;BMP180;9980;51.020;7.772;2023-01-28T07:47:05;98549.00;;;4.90
19666;BMP180;9980;51.020;7.772;2023-01-28T07:49:35;98552.00;;;4.90
19666;BMP180;9980;51.020;7.772;2023-01-28T07:52:06;98547.00;;;4.90
19666;BMP180;9980;51.020;7.772;2023-01-28T07:54:33;98547.00;;;4.90
19666;BMP180;9980;51.020;7.772;2023-01-28T07:57:00;98554.00;;;4.90
19666;BMP180;9980;51.020;7.772;2023-01-28T07:59:27;98560.00;;;4.90
19666;BMP180;9980;51.020;7.772;2023-01-28T08:01:53;98557.00;;;4.90
19666;BMP180;9980;51.020;7.772;2023-01-28T08:04:21;98579.00;;;5.00
19666;BMP180;9980;51.020;7.772;2023-01-28T08:06:48;98572.00;;;5.00
19666;BMP180;9980;51.020;7.772;2023-01-28T08:09:14;98563.00;;;5.00
19666;BMP180;9980;51.020;7.772;2023-01-28T08:11:41;98529.00;;;5.00
19666;BMP180;9980;51.020;7.772;2023-01-28T08:14:09;98545.00;;;5.00
19666;BMP180;9980;51.020;7.772;2023-01-28T08:16:35;98550.00;;;5.00
19666;BMP180;9980;51.020;7.772;2023-01-28T08:19:02;98568.00;;;5.00
19666;BMP180;9980;51.020;7.772;2023-01-28T08:21:28;98561.00;;;5.00
19666;BMP180;9980;51.020;7.772;2023-01-28T08:24:01;98548.00;;;5.10
19666;BMP180;9980;51.020;7.772;2023-01-28T08:26:34;98562.00;;;5.10
19666;BMP180;9980;51.020;7.772;2023-01-28T08:29:00;98557.00;;;5.10
19666;BMP180;9980;51.020;7.772;2023-01-28T08:31:27;98567.00;;;5.10
19666;BMP180;9980;51.020;7.772;2023-01-28T08:33:54;98572.00;;;5.10
19666;BMP180;9980;51.020;7.772;2023-01-28T08:36:22;98572.00;;;5.10
19666;BMP180;9980;51.020;7.772;2023-01-28T08:38:53;98556.00;;;5.10
19666;BMP180;9980;51.020;7.772;2023-01-28T08:41:21;98564.00;;;5.20
19666;BMP180;9980;51.020;7.772;2023-01-28T08:43:48;98590.00;;;5.20
19666;BMP180;9980;51.020;7.772;2023-01-28T08:46:15;98580.00;;;5.20
19666;BMP180;9980;51.020;7.772;2023-01-28T08:48:42;98582.00;;;5.20
19666;BMP180;9980;51.020;7.772;2023-01-28T08:51:08;98588.00;;;5.20
19666;BMP180;9980;51.020;7.772;2023-01-28T08:53:34;98592.00;;;5.20
19666;BMP180;9980;51.020;7.772;2023-01-28T08:56:00;98610.00;;;5.20
19666;BMP180;9980;51.020;7.772;2023-01-28T08:58:27;98584.00;;;5.20
19666;BMP180;9980;51.020;7.772;2023-01-28T09:00:53;98574.00;;;5.20
19666;BMP180;9980;51.020;7.772;2023-01-28T09:03:19;98591.00;;;5.20
19666;BMP180;9980;51.020;7.772;2023-01-28T09:05:46;98580.00;;;5.20
19666;BMP180;9980;51.020;7.772;2023-01-28T09:08:15;98584.00;;;5.20
19666;BMP180;9980;51.020;7.772;2023-01-28T09:10:42;98581.00;;;5.20
19666;BMP180;9980;51.020;7.772;2023-01-28T09:13:14;98592.00;;;5.30
19666;BMP180;9980;51.020;7.772;2023-01-28T09:15:41;98627.00;;;5.30
19666;BMP180;9980;51.020;7.772;2023-01-28T09:18:08;98614.00;;;5.30
19666;BMP180;9980;51.020;7.772;2023-01-28T09:20:35;98620.00;;;5.30
19666;BMP180;9980;51.020;7.772;2023-01-28T09:23:02;98610.00;;;5.40
19666;BMP180;9980;51.020;7.772;2023-01-28T09:25:29;98619.00;;;5.40
19666;BMP180;9980;51.020;7.772;2023-01-28T09:27:56;98626.00;;;5.40
19666;BMP180;9980;51.020;7.772;2023-01-28T09:30:23;98604.00;;;5.40
19666;BMP180;9980;51.020;7.772;2023-01-28T09:32:54;98618.00;;;5.40
19666;BMP180;9980;51.020;7.772;2023-01-28T09:35:21;98619.00;;;5.40
19666;BMP180;9980;51.020;7.772;2023-01-28T09:37:47;98635.00;;;5.40
19666;BMP180;9980;51.020;7.772;2023-01-28T09:40:24;98635.00;;;5.40
19666;BMP180;9980;51.020;7.772;2023-01-28T09:43:11;98643.00;;;5.40
19666;BMP180;9980;51.020;7.772;2023-01-28T09:45:49;98651.00;;;5.40
19666;BMP180;9980;51.020;7.772;2023-01-28T09:48:21;98639.00;;;5.40
19666;BMP180;9980;51.020;7.772;2023-01-28T09:50:54;98645.00;;;5.40
19666;BMP180;9980;51.020;7.772;2023-01-28T09:53:36;98654.00;;;5.40
19666;BMP180;9980;51.020;7.772;2023-01-28T09:56:21;98673.00;;;5.40
19666;BMP180;9980;51.020;7.772;2023-01-28T09:58:51;98656.00;;;5.40
19666;BMP180;9980;51.020;7.772;2023-01-28T10:07:33;98652.00;;;5.40
19666;BMP180;9980;51.020;7.772;2023-01-28T10:10:26;98663.00;;;5.40
19666;BMP180;9980;51.020;7.772;2023-01-28T10:18:54;98656.00;;;5.50
19666;BMP180;9980;51.020;7.772;2023-01-28T10:21:31;98652.00;;;5.50
19666;BMP180;9980;51.020;7.772;2023-01-28T10:26:41;98659.00;;;5.50
19666;BMP180;9980;51.020;7.772;2023-01-28T10:29:21;98660.00;;;5.50
19666;BMP180;9980;51.020;7.772;2023-01-28T10:31:56;98669.00;;;5.50
19666;BMP180;9980;51.020;7.772;2023-01-28T10:34:24;98653.00;;;5.50
19666;BMP180;9980;51.020;7.772;2023-01-28T10:36:51;98673.00;;;5.40
19666;BMP180;9980;51.020;7.772;2023-01-28T10:39:21;98662.00;;;5.50
19666;BMP180;9980;51.020;7.772;2023-01-28T10:41:48;98660.00;;;5.50
19666;BMP180;9980;51.020;7.772;2023-01-28T10:44:41;98682.00;;;5.50
19666;BMP180;9980;51.020;7.772;2023-01-28T10:47:18;98668.00;;;5.50
19666;BMP180;9980;51.020;7.772;2023-01-28T10:49:52;98654.00;;;5.50
19666;BMP180;9980;51.020;7.772;2023-01-28T10:52:22;98672.00;;;5.50
19666;BMP180;9980;51.020;7.772;2023-01-28T10:55:03;98674.00;;;5.50
19666;BMP180;9980;51.020;7.772;2023-01-28T10:57:32;98655.00;;;5.60
19666;BMP180;9980;51.020;7.772;2023-01-28T11:00:29;98660.00;;;5.50
19666;BMP180;9980;51.020;7.772;2023-01-28T11:02:57;98661.00;;;5.50
19666;BMP180;9980;51.020;7.772;2023-01-28T11:05:28;98654.00;;;5.60
19666;BMP180;9980;51.020;7.772;2023-01-28T11:08:14;98664.00;;;5.50
19666;BMP180;9980;51.020;7.772;2023-01-28T11:10:42;98656.00;;;5.50
19666;BMP180;9980;51.020;7.772;2023-01-28T11:16:16;98640.00;;;5.50
19666;BMP180;9980;51.020;7.772;2023-01-28T11:18:53;98658.00;;;5.50
19666;BMP180;9980;51.020;7.772;2023-01-28T11:21:27;98638.00;;;5.60
19666;BMP180;9980;51.020;7.772;2023-01-28T11:24:12;98653.00;;;5.60
19666;BMP180;9980;51.020;7.772;2023-01-28T11:26:44;98640.00;;;5.60
19666;BMP180;9980;51.020;7.772;2023-01-28T11:29:27;98637.00;;;5.60
19666;BMP180;9980;51.020;7.772;2023-01-28T11:31:57;98632.00;;;5.60
19666;BMP180;9980;51.020;7.772;2023-01-28T11:34:32;98642.00;;;5.70
19666;BMP180;9980;51.020;7.772;2023-01-28T11:37:15;98648.00;;;5.70
19666;BMP180;9980;51.020;7.772;2023-01-28T11:39:41;98647.00;;;5.70
19666;BMP180;9980;51.020;7.772;2023-01-28T11:42:18;98659.00;;;5.70
19666;BMP180;9980;51.020;7.772;2023-01-28T11:44:45;98653.00;;;5.70
19666;BMP180;9980;51.020;7.772;2023-01-28T11:50:17;98650.00;;;5.70
19666;BMP180;9980;51.020;7.772;2023-01-28T11:53:11;98653.00;;;5.70
19666;BMP180;9980;51.020;7.772;2023-01-28T11:56:12;98654.00;;;5.70
19666;BMP180;9980;51.020;7.772;2023-01-28T11:59:07;98646.00;;;5.70
19666;BMP180;9980;51.020;7.772;2023-01-28T12:02:00;98637.00;;;5.60
19666;BMP180;9980;51.020;7.772;2023-01-28T12:05:18;98649.00;;;5.70
19666;BMP180;9980;51.020;7.772;2023-01-28T12:08:36;98647.00;;;5.60
19666;BMP180;9980;51.020;7.772;2023-01-28T12:14:20;98635.00;;;5.60
19666;BMP180;9980;51.020;7.772;2023-01-28T12:19:44;98638.00;;;5.70
19666;BMP180;9980;51.020;7.772;2023-01-28T12:25:25;98637.00;;;5.70
19666;BMP180;9980;51.020;7.772;2023-01-28T12:28:56;98636.00;;;5.70
19666;BMP180;9980;51.020;7.772;2023-01-28T12:37:36;98626.00;;;5.60
19666;BMP180;9980;51.020;7.772;2023-01-28T12:40:44;98635.00;;;5.60
19666;BMP180;9980;51.020;7.772;2023-01-28T12:43:37;98629.00;;;5.60
19666;BMP180;9980;51.020;7.772;2023-01-28T12:49:08;98629.00;;;5.60
19666;BMP180;9980;51.020;7.772;2023-01-28T12:51:50;98622.00;;;5.60
19666;BMP180;9980;51.020;7.772;2023-01-28T12:54:54;98616.00;;;5.60
19666;BMP180;9980;51.020;7.772;2023-01-28T12:57:27;98604.00;;;5.70
19666;BMP180;9980;51.020;7.772;2023-01-28T13:06:22;98623.00;;;5.70
19666;BMP180;9980;51.020;7.772;2023-01-28T13:09:00;98620.00;;;5.70
19666;BMP180;9980;51.020;7.772;2023-01-28T13:11:33;98619.00;;;5.70
19666;BMP180;9980;51.020;7.772;2023-01-28T13:14:03;98630.00;;;5.70
19666;BMP180;9980;51.020;7.772;2023-01-28T13:16:30;98608.00;;;5.60
19666;BMP180;9980;51.020;7.772;2023-01-28T13:21:44;98603.00;;;5.60
19666;BMP180;9980;51.020;7.772;2023-01-28T13:26:46;98593.00;;;5.60
19666;BMP180;9980;51.020;7.772;2023-01-28T13:32:02;98572.00;;;5.70
19666;BMP180;9980;51.020;7.772;2023-01-28T13:34:41;98574.00;;;5.70
19666;BMP180;9980;51.020;7.772;2023-01-28T13:37:35;98574.00;;;5.70
19666;BMP180;9980;51.020;7.772;2023-01-28T13:42:37;98593.00;;;5.80
19666;BMP180;9980;51.020;7.772;2023-01-28T13:47:48;98548.00;;;5.90
19666;BMP180;9980;51.020;7.772;2023-01-28T13:50:20;98542.00;;;5.90
19666;BMP180;9980;51.020;7.772;2023-01-28T13:53:04;98528.00;;;5.90
19666;BMP180;9980;51.020;7.772;2023-01-28T13:55:38;98534.00;;;6.00
19666;BMP180;9980;51.020;7.772;2023-01-28T14:02:01;98543.00;;;6.00
19666;BMP180;9980;51.020;7.772;2023-01-28T14:05:13;98513.00;;;6.00
19666;BMP180;9980;51.020;7.772;2023-01-28T14:08:32;98527.00;;;6.10
19666;BMP180;9980;51.020;7.772;2023-01-28T14:17:19;98551.00;;;6.10
19666;BMP180;9980;51.020;7.772;2023-01-28T14:19:51;98567.00;;;6.20
19666;BMP180;9980;51.020;7.772;2023-01-28T14:22:21;98562.00;;;6.20
19666;BMP180;9980;51.020;7.772;2023-01-28T14:24:48;98576.00;;;6.20
19666;BMP180;9980;51.020;7.772;2023-01-28T14:27:37;98587.00;;;6.20
19666;BMP180;9980;51.020;7.772;2023-01-28T14:30:19;98579.00;;;6.30
19666;BMP180;9980;51.020;7.772;2023-01-28T14:32:52;98569.00;;;6.30
19666;BMP180;9980;51.020;7.772;2023-01-28T14:35:31;98602.00;;;6.30
19666;BMP180;9980;51.020;7.772;2023-01-28T14:38:06;98594.00;;;6.30
19666;BMP180;9980;51.020;7.772;2023-01-28T14:40:37;98596.00;;;6.30
19666;BMP180;9980;51.020;7.772;2023-01-28T14:43:08;98616.00;;;6.30
19666;BMP180;9980;51.020;7.772;2023-01-28T14:46:00;98608.00;;;6.30
19666;BMP180;9980;51.020;7.772;2023-01-28T14:48:47;98616.00;;;6.20
19666;BMP180;9980;51.020;7.772;2023-01-28T14:51:45;98607.00;;;6.20
19666;BMP180;9980;51.020;7.772;2023-01-28T14:54:41;98607.00;;;6.20
19666;BMP180;9980;51.020;7.772;2023-01-28T14:57:44;98573.00;;;6.20
19666;BMP180;9980;51.020;7.772;2023-01-28T15:00:23;98597.00;;;6.20
19666;BMP180;9980;51.020;7.772;2023-01-28T15:02:49;98600.00;;;6.10
19666;BMP180;9980;51.020;7.772;2023-01-28T15:05:26;98624.00;;;6.10
19666;BMP180;9980;51.020;7.772;2023-01-28T15:07:53;98611.00;;;5.90
19666;BMP180;9980;51.020;7.772;2023-01-28T15:10:28;98625.00;;;6.00
19666;BMP180;9980;51.020;7.772;2023-01-28T15:13:10;98600.00;;;5.90
19666;BMP180;9980;51.020;7.772;2023-01-28T15:15:40;98584.00;;;6.00
19666;BMP180;9980;51.020;7.772;2023-01-28T15:18:19;98603.00;;;6.00
19666;BMP180;9980;51.020;7.772;2023-01-28T15:20:54;98582.00;;;6.00
19666;BMP180;9980;51.020;7.772;2023-01-28T15:23:35;98585.00;;;6.00
19666;BMP180;9980;51.020;7.772;2023-01-28T15:26:17;98588.00;;;6.00
19666;BMP180;9980;51.020;7.772;2023-01-28T15:28:48;98574.00;;;5.90
19666;BMP180;9980;51.020;7.772;2023-01-28T15:31:29;98572.00;;;5.90
19666;BMP180;9980;51.020;7.772;2023-01-28T15:34:17;98567.00;;;5.90
19666;BMP180;9980;51.020;7.772;2023-01-28T15:36:44;98558.00;;;5.90
19666;BMP180;9980;51.020;7.772;2023-01-28T15:39:19;98569.00;;;5.90
19666;BMP180;9980;51.020;7.772;2023-01-28T15:41:56;98564.00;;;5.80
19666;BMP180;9980;51.020;7.772;2023-01-28T15:44:41;98573.00;;;5.80
19666;BMP180;9980;51.020;7.772;2023-01-28T15:47:29;98553.00;;;5.80
19666;BMP180;9980;51.020;7.772;2023-01-28T15:50:05;98539.00;;;5.70
19666;BMP180;9980;51.020;7.772;2023-01-28T15:52:38;98556.00;;;5.70
19666;BMP180;9980;51.020;7.772;2023-01-28T15:55:28;98557.00;;;5.60
19666;BMP180;9980;51.020;7.772;2023-01-28T15:57:55;98565.00;;;5.60
19666;BMP180;9980;51.020;7.772;2023-01-28T16:00:24;98548.00;;;5.60
19666;BMP180;9980;51.020;7.772;2023-01-28T16:02:54;98553.00;;;5.50
19666;BMP180;9980;51.020;7.772;2023-01-28T16:05:41;98589.00;;;5.50
19666;BMP180;9980;51.020;7.772;2023-01-28T16:08:16;98588.00;;;5.40
19666;BMP180;9980;51.020;7.772;2023-01-28T16:10:52;98595.00;;;5.40
19666;BMP180;9980;51.020;7.772;2023-01-28T16:13:22;98594.00;;;5.30
19666;BMP180;9980;51.020;7.772;2023-01-28T16:15:54;98608.00;;;5.20
19666;BMP180;9980;51.020;7.772;2023-01-28T16:18:46;98601.00;;;5.20
19666;BMP180;9980;51.020;7.772;2023-01-28T16:21:36;98593.00;;;5.10
19666;BMP180;9980;51.020;7.772;2023-01-28T16:24:51;98598.00;;;5.00
19666;BMP180;9980;51.020;7.772;2023-01-28T16:27:28;98600.00;;;5.00
19666;BMP180;9980;51.020;7.772;2023-01-28T16:29:54;98587.00;;;4.90
19666;BMP180;9980;51.020;7.772;2023-01-28T16:32:35;98601.00;;;4.90
19666;BMP180;9980;51.020;7.772;2023-01-28T16:35:25;98620.00;;;4.90
19666;BMP180;9980;51.020;7.772;2023-01-28T16:37:53;98619.00;;;4.80
19666;BMP180;9980;51.020;7.772;2023-01-28T16:40:23;98623.00;;;4.70
19666;BMP180;9980;51.020;7.772;2023-01-28T16:42:53;98635.00;;;4.70
19666;BMP180;9980;51.020;7.772;2023-01-28T16:45:23;98655.00;;;4.70